Hampstead, NC

3:19 PM EDT on August 31, 2015 (GMT -0400)
RAWS | | Change Station
CLOSE
Current Station
Personal Weather Station
Location: Maple Hill, NC
Elevation: 20 ft
Nearby Weather Stations

Elev 20 ft 34.53 °N, 77.72 °W | Updated 1 hour ago

Overcast
Overcast
80 °F
Feels Like 85 °F
N
5
Wind Variable Wind from East
Gusts 8.0 mph

Today
High -- | Low -- °F
--% Chance of Precip.
Yesterday
High -- | Low -- °F
Precip. -- in
6:43 AM 7:38 PM
Waning Gibbous, 94% visible
Pressure 30.08 in
Visibility 10.0 miles
Clouds Few 1500 ft
Mostly Cloudy 6000 ft
Mostly Cloudy 7000 ft
Heat Index 85 °F
Dew Point 74 °F
Humidity 82%
Rainfall in
Snow Depth Not available.
UV 4 out of 12
Pollen 2.90 out of 12
Air Quality Not available.
Flu Activity Not available.
METAR KOAJ 311915Z AUTO 13005KT 10SM FEW015 BKN060 BKN070 27/22 A3008 RMK AO1
Pressure 30.08 in
Visibility 10.0 miles
Clouds Few 1500 ft
Mostly Cloudy 6000 ft
Mostly Cloudy 7000 ft
Heat Index 85 °F
Dew Point 74 °F
Humidity 82%
Rainfall in
Snow Depth Not available.
UV 4 out of 12
Pollen 2.90 out of 12
Air Quality Not available.
Flu Activity Not available.
METAR KOAJ 311915Z AUTO 13005KT 10SM FEW015 BKN060 BKN070 27/22 A3008 RMK AO1

10-Day Weather Forecast

×

Almanac

Astronomy

Aug. 31, 2015 Rise Set
Actual Time
Civil Twilight
Nautical Twilight
Astronomical Twilight
Moon
Length of Visible Light
Length of Day
Tomorrow will be .
, % of the Moon is Illuminated

Today's Extremes

State Highs State Lows

Community

WunderPhotos

Upload Photos

1,851,340 photos uploaded!

WunderBlogs® & News

Nearby

Air Quality

  Air Quality AQ Index Pollutant
Not available.

Snow Depth

Station Depth Elevation

Earthquake Activity

City Distance Mag. Time & Date
Minimum magnitude displayed is 2.5.

Coastal Water Temperatures

Place Temperature

Stations

Nearby Weather Stations

Station Location Temp. Windchill Dew Point Humidity Wind Precip. Elev Updated Type